Time;durP1;ratioP1;P1;durP2;ratioP2;P2;SDS_P1;SDS_P2;PMS_P1;PMS_P2;Temp;Humidity;BMP_temperature;BMP_pressure;BME280_temperature;BME280_humidity;BME280_pressure;Samples;Min_cycle;Max_cycle;Signal;HPM_P1;HPM_P2
2022/03/23 00:01:22;;;;;;;19.88;13.93;;;;;;;7.51;64.60;103019.06;5056871;28;20477;-36
2022/03/23 00:03:47;;;;;;;19.47;13.70;;;;;;;7.46;64.03;103027.59;5056970;28;20052;-36
2022/03/23 00:06:13;;;;;;;19.92;14.50;;;;;;;7.40;65.47;103022.00;5057263;28;20099;-36
2022/03/23 00:08:39;;;;;;;18.35;14.23;;;;;;;7.39;64.63;103020.31;5057048;28;20464;-35
2022/03/23 00:11:05;;;;;;;19.58;15.00;;;;;;;7.30;65.43;103011.34;5057448;28;20110;-36
2022/03/23 00:13:30;;;;;;;22.83;14.90;;;;;;;7.35;65.78;103027.03;5056896;28;20477;-36
2022/03/23 00:15:56;;;;;;;18.77;14.60;;;;;;;7.21;66.63;103013.09;5056670;28;20173;-36
2022/03/23 00:18:22;;;;;;;18.70;15.05;;;;;;;7.29;65.52;103027.66;5056542;28;20033;-36
2022/03/23 00:20:47;;;;;;;18.95;14.55;;;;;;;7.22;66.66;103014.81;5056724;28;20025;-35
2022/03/23 00:23:13;;;;;;;17.13;13.10;;;;;;;7.16;65.57;103009.19;5056434;28;20457;-35
2022/03/23 00:25:38;;;;;;;17.13;13.23;;;;;;;7.05;65.49;103028.28;5056308;28;20029;-36
2022/03/23 00:28:05;;;;;;;17.25;13.73;;;;;;;6.92;65.70;103026.81;5056620;28;20064;-36
2022/03/23 00:30:32;;;;;;;18.83;15.13;;;;;;;6.87;67.10;103029.13;5056404;28;20098;-36
2022/03/23 00:32:58;;;;;;;20.83;14.30;;;;;;;6.85;67.54;103016.84;5056077;28;20024;-36
2022/03/23 00:35:24;;;;;;;18.92;13.85;;;;;;;6.87;66.93;103021.03;5056075;28;20050;-35
2022/03/23 00:37:50;;;;;;;17.45;13.98;;;;;;;6.85;67.17;103025.75;5055822;28;20040;-36
2022/03/23 00:40:16;;;;;;;16.65;13.45;;;;;;;6.80;67.09;103025.38;5055793;28;20122;-36
2022/03/23 00:42:42;;;;;;;17.58;14.25;;;;;;;6.73;67.31;103026.94;5055926;28;20021;-35
2022/03/23 00:45:08;;;;;;;18.60;14.10;;;;;;;6.65;66.90;103016.13;5055770;28;20031;-36
2022/03/23 00:47:35;;;;;;;;;;;;;;;6.91;65.01;103027.81;5056206;28;20374;-36
2022/03/23 00:50:01;;;;;;;18.03;13.43;;;;;;;6.61;67.27;103029.03;5055831;28;19913;-36
2022/03/23 00:52:26;;;;;;;;;;;;;;;6.84;64.94;103025.91;5056675;28;20363;-35
2022/03/23 00:54:51;;;;;;;18.80;14.07;;;;;;;6.60;67.23;103024.66;5055396;28;20019;-36
2022/03/23 00:57:17;;;;;;;18.80;13.77;;;;;;;6.57;67.84;103027.63;5055715;28;20298;-35
2022/03/23 00:59:42;;;;;;;17.87;14.17;;;;;;;6.61;68.03;103028.19;5056461;28;20120;-36
2022/03/23 01:02:09;;;;;;;25.53;15.27;;;;;;;6.60;69.29;103031.88;5055859;28;20052;-35
2022/03/23 01:04:34;;;;;;;18.35;13.98;;;;;;;6.49;68.31;103030.25;5054229;28;20040;-35
2022/03/23 01:07:00;;;;;;;19.73;14.80;;;;;;;6.50;66.36;103028.41;5055915;28;20113;-35
2022/03/23 01:09:25;;;;;;;21.13;15.80;;;;;;;6.34;67.55;103029.03;5055767;28;20146;-35
2022/03/23 01:11:52;;;;;;;18.13;14.88;;;;;;;6.23;66.67;103022.03;5054438;28;20392;-35
2022/03/23 01:14:19;;;;;;;19.45;15.25;;;;;;;6.34;68.05;103020.97;5055456;28;20036;-35
2022/03/23 01:16:45;;;;;;;21.25;14.68;;;;;;;6.30;68.09;103025.81;5055736;28;20389;-35
2022/03/23 01:19:10;;;;;;;20.33;15.20;;;;;;;6.14;67.88;103023.75;5055427;28;20112;-35
2022/03/23 01:21:36;;;;;;;21.03;14.40;;;;;;;6.19;68.81;103020.63;5055851;28;20025;-35
2022/03/23 01:24:02;;;;;;;19.77;15.20;;;;;;;6.10;67.99;103005.41;5055240;28;20354;-35
2022/03/23 01:26:27;;;;;;;;;;;;;;;6.32;66.94;103015.75;5055716;28;20391;-35
2022/03/23 01:28:52;;;;;;;24.10;14.37;;;;;;;6.03;70.50;103005.16;5055134;28;20062;-35
2022/03/23 01:31:18;;;;;;;23.03;14.77;;;;;;;6.19;69.97;103008.03;5053801;28;20720;-35
2022/03/23 01:33:43;;;;;;;20.03;14.10;;;;;;;6.15;69.49;102998.63;5055008;28;20020;-35
2022/03/23 01:36:10;;;;;;;22.93;15.40;;;;;;;6.15;69.94;103005.84;5055284;28;20025;-35
2022/03/23 01:38:36;;;;;;;25.58;14.45;;;;;;;6.02;70.83;102999.94;5055014;28;20492;-35
2022/03/23 01:41:01;;;;;;;17.40;14.60;;;;;;;5.96;70.69;103003.22;5055292;28;20115;-35
2022/03/23 01:43:26;;;;;;;20.17;15.53;;;;;;;5.97;71.04;102996.88;5054484;28;20309;-35
2022/03/23 01:45:53;;;;;;;19.87;14.27;;;;;;;5.81;70.69;102981.34;5055168;28;20068;-35
2022/03/23 01:48:18;;;;;;;;;;;;;;;6.11;68.73;102999.91;5055646;28;20520;-35
2022/03/23 01:50:43;;;;;;;18.95;14.32;;;;;;;6.06;70.84;102998.66;5055287;28;19913;-35
2022/03/23 01:53:09;;;;;;;18.17;14.43;;;;;;;5.90;69.91;102999.25;5054799;28;20025;-35
2022/03/23 01:55:34;;;;;;;21.47;15.23;;;;;;;5.89;70.93;102993.03;5055052;28;20041;-35
2022/03/23 01:58:00;;;;;;;22.33;14.93;;;;;;;5.81;71.33;102995.63;5054655;28;20275;-35
2022/03/23 02:00:28;;;;;;;21.63;15.63;;;;;;;5.72;71.05;103001.88;5054666;28;20380;-35
2022/03/23 02:02:53;;;;;;;20.15;14.75;;;;;;;5.61;70.98;102996.66;5054596;28;20043;-35
2022/03/23 02:05:19;;;;;;;23.05;14.80;;;;;;;5.60;71.34;102992.28;5054526;28;20045;-35
2022/03/23 02:07:45;;;;;;;20.83;15.03;;;;;;;5.58;71.29;102987.06;5054622;28;20036;-35
2022/03/23 02:10:10;;;;;;;24.50;14.77;;;;;;;5.49;72.02;102979.88;5054956;28;20259;-35
2022/03/23 02:12:38;;;;;;;21.80;15.23;;;;;;;5.57;71.39;102992.59;5054782;28;20025;-35
2022/03/23 02:15:17;;;;;;;22.63;15.10;;;;;;;5.45;71.40;102980.31;5054933;28;20057;-35
2022/03/23 02:17:44;;;;;;;21.15;15.45;;;;;;;5.36;70.73;102993.59;5054208;28;20033;-35
2022/03/23 02:20:11;;;;;;;20.25;14.70;;;;;;;5.25;71.29;102999.13;5054005;28;20075;-35
2022/03/23 02:22:36;;;;;;;18.92;15.15;;;;;;;5.21;70.14;102995.03;5054148;28;20036;-35
2022/03/23 02:25:03;;;;;;;22.35;16.20;;;;;;;5.12;71.36;102995.91;5054155;28;20029;-41
2022/03/23 02:27:29;;;;;;;21.17;15.85;;;;;;;5.06;71.21;102991.97;5053958;28;20028;-35
2022/03/23 02:29:54;;;;;;;22.60;16.27;;;;;;;5.09;72.05;102991.69;5053809;28;20029;-35
2022/03/23 02:32:20;;;;;;;22.87;16.17;;;;;;;5.00;71.95;102997.91;5054312;28;20087;-35
2022/03/23 02:34:45;;;;;;;22.90;15.80;;;;;;;4.81;72.15;102963.88;5053722;28;20021;-35
2022/03/23 02:37:11;;;;;;;22.10;15.47;;;;;;;4.93;70.93;102990.53;5052610;28;20032;-35
2022/03/23 02:39:36;;;;;;;22.98;15.38;;;;;;;4.96;71.76;102993.81;5053819;28;20047;-35
2022/03/23 02:42:02;;;;;;;22.40;15.77;;;;;;;4.93;72.54;102985.19;5054031;28;20039;-35
2022/03/23 02:44:29;;;;;;;21.83;15.55;;;;;;;4.77;69.49;102988.44;5053747;28;20102;-35
2022/03/23 02:46:55;;;;;;;22.17;16.58;;;;;;;4.89;72.36;102990.00;5054421;28;20037;-35
2022/03/23 02:49:20;;;;;;;22.58;16.83;;;;;;;4.89;72.46;102992.69;5053372;28;20095;-35
2022/03/23 02:51:47;;;;;;;24.00;15.70;;;;;;;4.89;72.76;102988.16;5054001;28;20025;-35
2022/03/23 03:02:41;;;;;;;21.23;16.17;;;;;;;4.67;72.90;102993.78;5053752;28;20535;-35
2022/03/23 03:05:10;;;;;;;25.48;15.45;;;;;;;4.60;72.33;102989.97;5053188;28;20029;-36
2022/03/23 03:10:22;;;;;;;20.80;15.48;;;;;;;4.56;72.77;102994.78;5053882;28;20059;-36
2022/03/23 03:12:49;;;;;;;20.20;14.93;;;;;;;4.50;70.91;102997.16;5053559;28;20025;-36
2022/03/23 03:15:15;;;;;;;22.02;16.40;;;;;;;4.51;72.67;102980.94;5053271;28;20152;-36
2022/03/23 03:17:41;;;;;;;21.77;16.77;;;;;;;4.60;73.45;103006.06;5052555;28;20051;-36
2022/03/23 03:20:07;;;;;;;23.67;16.13;;;;;;;4.70;72.70;103004.25;5053222;28;20033;-36
2022/03/23 03:22:35;;;;;;;23.77;15.35;;;;;;;4.59;73.23;103001.69;5053140;28;20044;-36
2022/03/23 03:25:01;;;;;;;21.77;16.55;;;;;;;4.45;71.91;102988.69;5053691;28;20029;-36
2022/03/23 03:27:26;;;;;;;19.52;15.30;;;;;;;4.56;70.37;103004.66;5052618;28;20125;-36
2022/03/23 03:29:52;;;;;;;24.40;16.93;;;;;;;4.60;72.87;103009.59;5053322;28;20517;-36
2022/03/23 03:32:17;;;;;;;21.57;16.30;;;;;;;4.59;73.28;103009.75;5051579;28;20082;-36
2022/03/23 03:34:43;;;;;;;24.23;16.63;;;;;;;4.56;72.66;103007.31;5053181;28;20266;-36
2022/03/23 03:37:08;;;;;;;20.38;15.38;;;;;;;4.57;71.66;103003.66;5053349;28;20111;-36
2022/03/23 03:39:34;;;;;;;19.17;15.30;;;;;;;4.51;72.37;103007.72;5053001;28;20090;-36
2022/03/23 03:41:59;;;;;;;20.60;15.07;;;;;;;4.42;72.22;103005.03;5053525;28;20021;-36
2022/03/23 03:44:24;;;;;;;22.27;16.43;;;;;;;4.37;73.27;103006.28;5053173;28;20025;-36
2022/03/23 03:46:50;;;;;;;24.13;15.27;;;;;;;4.32;72.91;103008.53;5052901;28;20048;-36
2022/03/23 03:49:15;;;;;;;22.57;16.23;;;;;;;4.30;73.60;103007.84;5052859;28;20029;-36
2022/03/23 03:51:42;;;;;;;24.50;16.17;;;;;;;4.14;74.58;102983.38;5053153;28;20025;-36
2022/03/23 03:54:07;;;;;;;20.77;16.48;;;;;;;4.17;73.31;103001.88;5052853;28;20267;-36
2022/03/23 03:56:33;;;;;;;23.17;16.05;;;;;;;4.24;73.92;103020.91;5052551;28;20053;-36
2022/03/23 03:58:58;;;;;;;22.07;16.20;;;;;;;4.27;73.97;103012.63;5052914;28;20099;-36
2022/03/23 04:01:24;;;;;;;24.93;16.43;;;;;;;4.18;72.10;103011.59;5050982;28;20029;-36
2022/03/23 04:03:49;;;;;;;22.15;16.20;;;;;;;4.12;73.67;103013.00;5052870;28;20028;-36
2022/03/23 04:06:15;;;;;;;24.47;16.57;;;;;;;4.06;74.59;103015.38;5052779;28;20025;-36
2022/03/23 04:08:40;;;;;;;22.20;16.23;;;;;;;4.03;73.27;103000.41;5052716;28;20444;-36
2022/03/23 04:11:05;;;;;;;24.37;17.30;;;;;;;4.00;73.07;103003.38;5052573;28;20049;-36
2022/03/23 04:13:31;;;;;;;22.20;16.97;;;;;;;3.94;74.35;103000.38;5052691;28;20044;-34
2022/03/23 04:15:56;;;;;;;23.77;17.45;;;;;;;4.03;74.88;103015.63;5053221;28;20082;-35
2022/03/23 04:18:22;;;;;;;24.53;17.03;;;;;;;3.98;72.98;103013.34;5052696;28;20465;-35
2022/03/23 04:20:47;;;;;;;21.77;16.00;;;;;;;4.05;74.54;103014.53;5052306;28;20037;-35
2022/03/23 04:23:12;;;;;;;23.97;16.17;;;;;;;3.96;71.57;103014.50;5052263;28;20040;-36
2022/03/23 04:25:38;;;;;;;20.10;15.83;;;;;;;3.99;73.82;103011.53;5053118;28;20023;-36
2022/03/23 04:28:03;;;;;;;21.43;16.13;;;;;;;4.03;74.91;103003.09;5052870;28;20025;-36
2022/03/23 04:30:30;;;;;;;25.13;17.13;;;;;;;4.18;74.00;103011.59;5056305;28;20044;-36
2022/03/23 04:32:56;;;;;;;22.98;16.75;;;;;;;4.24;74.52;103011.03;5056215;28;20044;-36
2022/03/23 04:35:22;;;;;;;22.75;15.85;;;;;;;4.39;74.29;103011.50;5056188;28;20465;-35
2022/03/23 04:37:48;;;;;;;20.40;15.45;;;;;;;4.42;73.74;103013.91;5056945;28;20040;-36
2022/03/23 04:40:15;;;;;;;21.95;14.70;;;;;;;4.51;75.14;103017.59;5055832;28;20521;-36
2022/03/23 04:42:42;;;;;;;24.40;17.02;;;;;;;4.46;73.72;103020.69;5055984;28;20102;-34
2022/03/23 04:45:08;;;;;;;20.73;16.60;;;;;;;4.53;73.58;103020.97;5056250;28;20036;-35
2022/03/23 04:47:34;;;;;;;23.30;16.75;;;;;;;4.36;71.70;103018.00;5056118;28;20021;-35
2022/03/23 04:50:00;;;;;;;19.30;15.57;;;;;;;4.41;73.60;103022.09;5056232;28;20037;-35
2022/03/23 04:52:25;;;;;;;;;;;;;;;4.47;72.50;103027.75;5055979;28;20029;-35
2022/03/23 04:54:56;;;;;;;19.70;14.87;;;;;;;4.46;74.15;103019.84;5056078;28;20253;-35
2022/03/23 04:57:22;;;;;;;21.52;16.17;;;;;;;4.45;73.62;103020.84;5055689;28;20271;-34
2022/03/23 04:59:47;;;;;;;22.45;15.55;;;;;;;4.39;73.19;103028.44;5055819;28;20025;-35
2022/03/23 05:02:12;;;;;;;21.90;16.30;;;;;;;4.39;73.44;103028.44;5055407;28;20052;-35
2022/03/23 05:04:38;;;;;;;22.60;16.53;;;;;;;4.35;73.42;103034.22;5056183;28;20074;-35
2022/03/23 05:07:04;;;;;;;27.20;17.50;;;;;;;4.26;73.37;103030.53;5055240;28;20033;-35
2022/03/23 05:09:29;;;;;;;24.55;16.50;;;;;;;4.13;71.77;103029.91;5056016;28;20024;-44
2022/03/23 05:11:54;;;;;;;23.93;16.47;;;;;;;4.11;74.09;103031.88;5055304;28;20028;-35
2022/03/23 05:14:20;;;;;;;19.93;16.60;;;;;;;4.04;73.76;103031.56;5055763;28;20037;-35
2022/03/23 05:16:45;;;;;;;23.30;17.43;;;;;;;3.96;73.76;103039.44;5056034;28;20025;-35
2022/03/23 05:19:10;;;;;;;22.17;16.70;;;;;;;3.99;74.49;103040.97;5055359;28;20515;-34
2022/03/23 05:21:36;;;;;;;23.47;16.03;;;;;;;4.00;74.43;103039.97;5055383;28;20035;-35
2022/03/23 05:24:01;;;;;;;24.83;17.20;;;;;;;3.89;73.89;103038.25;5055070;28;20048;-35
2022/03/23 05:26:26;;;;;;;19.10;15.53;;;;;;;3.78;74.84;103024.97;5055793;28;20091;-35
2022/03/23 05:28:52;;;;;;;19.37;15.70;;;;;;;3.83;74.73;103039.63;5055252;28;20426;-35
2022/03/23 05:31:17;;;;;;;23.70;16.17;;;;;;;3.78;75.91;103038.34;5055251;28;20017;-35
2022/03/23 05:33:42;;;;;;;21.10;15.20;;;;;;;3.73;74.96;103041.41;5055261;28;20025;-35
2022/03/23 05:36:08;;;;;;;23.10;16.87;;;;;;;3.73;76.57;103036.06;5055462;28;20080;-34
2022/03/23 05:38:34;;;;;;;;;;;;;;;3.83;73.78;103046.81;5055471;28;20035;-35
2022/03/23 05:40:59;;;;;;;20.93;16.00;;;;;;;3.90;76.22;103057.81;5054606;28;20409;-34
2022/03/23 05:43:24;;;;;;;20.80;16.00;;;;;;;3.87;76.77;103057.13;5054797;28;20029;-35
2022/03/23 05:45:50;;;;;;;24.50;17.50;;;;;;;3.87;75.33;103059.81;5054937;28;20103;-35
2022/03/23 05:48:15;;;;;;;21.47;16.63;;;;;;;3.82;74.39;103058.50;5055176;28;20112;-35
2022/03/23 05:50:40;;;;;;;25.10;16.00;;;;;;;3.76;75.78;103056.38;5054877;28;20024;-35
2022/03/23 05:53:07;;;;;;;29.60;17.13;;;;;;;3.78;75.61;103065.09;5054750;28;20029;-34
2022/03/23 05:55:33;;;;;;;23.33;17.42;;;;;;;3.78;76.27;103065.09;5055122;28;20049;-35
2022/03/23 05:57:59;;;;;;;21.37;16.87;;;;;;;3.77;76.24;103066.94;5054449;28;20036;-34
2022/03/23 06:00:24;;;;;;;24.38;16.42;;;;;;;3.70;76.07;103072.94;5054916;28;20028;-35
2022/03/23 06:02:49;;;;;;;24.83;16.37;;;;;;;3.73;76.19;103070.84;5054284;28;20531;-35
2022/03/23 06:05:15;;;;;;;22.70;17.20;;;;;;;3.80;75.93;103076.50;5055129;28;20260;-34
2022/03/23 06:07:40;;;;;;;23.17;16.97;;;;;;;3.82;74.65;103078.09;5054557;28;20032;-35
2022/03/23 06:10:09;;;;;;;22.30;16.70;;;;;;;3.87;75.21;103077.69;5036992;28;20381;-35
2022/03/23 06:12:35;;;;;;;23.48;16.55;;;;;;;3.81;74.24;103067.53;5054315;28;20035;-35
2022/03/23 06:15:00;;;;;;;21.58;15.80;;;;;;;3.86;75.62;103066.16;5055133;28;20111;-35
2022/03/23 06:17:26;;;;;;;21.37;17.07;;;;;;;3.93;75.15;103079.84;5054220;28;20389;-35
2022/03/23 06:19:51;;;;;;;28.30;17.93;;;;;;;3.93;74.92;103079.84;5055040;28;20279;-35
2022/03/23 06:22:16;;;;;;;20.83;16.13;;;;;;;4.04;75.33;103078.91;5054645;28;20017;-35
2022/03/23 06:24:42;;;;;;;21.33;16.10;;;;;;;4.11;76.68;103083.59;5054686;28;20489;-35
2022/03/23 06:27:07;;;;;;;20.47;16.10;;;;;;;4.19;77.38;103074.88;5052661;28;20282;-35
2022/03/23 06:29:33;;;;;;;22.40;17.17;;;;;;;4.34;76.47;103081.59;5054546;28;20755;-35
2022/03/23 06:31:58;;;;;;;23.10;16.13;;;;;;;4.38;76.31;103084.81;5054561;28;20466;-35
2022/03/23 06:34:23;;;;;;;25.20;16.60;;;;;;;4.34;75.74;103070.88;5054345;28;20079;-36
2022/03/23 06:36:49;;;;;;;21.47;15.93;;;;;;;4.53;76.91;103083.47;5054171;28;20025;-35
2022/03/23 06:39:14;;;;;;;22.30;16.97;;;;;;;4.61;76.26;103083.63;5054008;28;20284;-36
2022/03/23 06:41:40;;;;;;;21.93;16.67;;;;;;;4.61;75.89;103090.81;5053956;28;20142;-34
2022/03/23 06:44:05;;;;;;;20.83;16.03;;;;;;;4.61;74.18;103080.94;5053711;28;20424;-35
2022/03/23 06:46:30;;;;;;;24.90;16.07;;;;;;;4.69;75.95;103092.84;5054243;28;20108;-35
2022/03/23 06:48:56;;;;;;;23.43;16.47;;;;;;;4.76;75.93;103092.13;5052967;28;20032;-35
2022/03/23 06:51:21;;;;;;;23.27;17.67;;;;;;;4.77;76.33;103083.09;5053667;28;20028;-35
2022/03/23 06:53:46;;;;;;;26.50;16.93;;;;;;;4.98;76.81;103098.22;5053757;28;20025;-35
2022/03/23 06:56:12;;;;;;;23.87;18.80;;;;;;;5.02;74.96;103079.03;5052135;28;20405;-35
2022/03/23 06:58:38;;;;;;;24.70;18.33;;;;;;;5.12;74.43;103087.97;5053454;28;20033;-35
2022/03/23 07:01:03;;;;;;;25.38;18.60;;;;;;;5.29;74.18;103094.44;5053561;28;20036;-35
2022/03/23 07:03:29;;;;;;;22.77;17.80;;;;;;;5.43;73.56;103094.03;5053169;28;20032;-35
2022/03/23 07:05:54;;;;;;;30.33;19.50;;;;;;;5.56;73.37;103104.47;5053225;28;20057;-34
2022/03/23 07:11:05;;;;;;;29.42;19.25;;;;;;;5.78;71.86;103100.63;5054187;28;20043;-35
2022/03/23 07:13:30;;;;;;;;;;;;;;;5.86;72.09;103089.16;5053961;28;20028;-35
2022/03/23 07:15:56;;;;;;;25.92;19.45;;;;;;;5.97;70.33;103102.44;5053692;28;19915;-35
2022/03/23 07:18:21;;;;;;;27.73;18.47;;;;;;;6.11;69.57;103111.88;5053136;28;20079;-34
2022/03/23 07:20:46;;;;;;;24.37;18.93;;;;;;;6.15;69.73;103099.84;5054051;28;20035;-35
2022/03/23 07:23:12;;;;;;;24.40;19.40;;;;;;;6.30;68.61;103117.19;5052939;28;20075;-35
2022/03/23 07:25:37;;;;;;;25.63;19.10;;;;;;;6.29;68.78;103101.19;5053514;28;20021;-35
2022/03/23 07:28:03;;;;;;;24.13;19.70;;;;;;;6.38;68.84;103119.97;5053223;28;20029;-35
2022/03/23 07:30:30;;;;;;;33.40;19.13;;;;;;;6.49;68.11;103118.09;5053656;28;20477;-36
2022/03/23 07:32:55;;;;;;;25.63;20.05;;;;;;;6.54;68.10;103116.66;5053071;28;20031;-35
2022/03/23 07:35:21;;;;;;;26.20;19.57;;;;;;;6.61;67.61;103111.53;5053555;28;20101;-35
2022/03/23 07:37:47;;;;;;;28.00;19.52;;;;;;;6.70;68.01;103113.31;5053218;28;20063;-35
2022/03/23 07:40:13;;;;;;;28.23;18.95;;;;;;;6.78;67.51;103113.41;5053139;28;20029;-35
2022/03/23 07:42:38;;;;;;;26.90;19.47;;;;;;;6.81;68.41;103107.72;5053089;28;20036;-35
2022/03/23 07:45:05;;;;;;;25.93;20.13;;;;;;;6.99;68.22;103121.22;5052813;28;20060;-36
2022/03/23 07:47:31;;;;;;;28.13;20.17;;;;;;;7.06;66.75;103116.91;5051508;28;20037;-35
2022/03/23 07:49:56;;;;;;;23.73;19.98;;;;;;;7.17;66.71;103122.09;5052928;28;20029;-35
2022/03/23 07:52:22;;;;;;;23.83;19.07;;;;;;;7.32;66.44;103119.69;5052682;28;20057;-35
2022/03/23 07:54:47;;;;;;;27.63;20.57;;;;;;;7.45;67.61;103125.53;5052909;28;20108;-42
2022/03/23 07:57:13;;;;;;;26.30;20.00;;;;;;;7.39;65.60;103104.63;5052820;28;20524;-35
2022/03/23 07:59:40;;;;;;;28.33;20.33;;;;;;;7.69;65.79;103124.88;5052485;28;20069;-35
2022/03/23 08:02:06;;;;;;;28.67;19.90;;;;;;;7.79;64.37;103132.88;5052740;28;20116;-35
2022/03/23 08:04:32;;;;;;;27.00;19.27;;;;;;;7.89;63.94;103114.75;5056910;28;20453;-35
2022/03/23 08:06:59;;;;;;;24.67;18.90;;;;;;;8.09;64.91;103133.41;5057382;28;20032;-35
2022/03/23 08:09:25;;;;;;;27.65;20.45;;;;;;;8.14;63.38;103117.59;5056514;28;20047;-35
2022/03/23 08:11:50;;;;;;;25.80;20.43;;;;;;;8.32;63.72;103131.88;5056807;28;20525;-35
2022/03/23 08:14:16;;;;;;;29.38;20.10;;;;;;;8.38;62.90;103122.31;5056738;28;20025;-35
2022/03/23 08:16:41;;;;;;;26.13;20.00;;;;;;;8.58;62.42;103131.84;5057264;28;20025;-35
2022/03/23 08:19:07;;;;;;;26.17;20.15;;;;;;;8.73;62.51;103130.22;5056783;28;20029;-35
2022/03/23 08:21:33;;;;;;;28.53;18.80;;;;;;;8.83;61.08;103130.09;5056702;28;20425;-35
2022/03/23 08:23:59;;;;;;;21.63;18.08;;;;;;;8.96;59.28;103125.06;5056392;28;20029;-36
2022/03/23 08:26:24;;;;;;;23.97;18.73;;;;;;;9.10;60.10;103131.69;5056207;28;20112;-34
2022/03/23 08:28:50;;;;;;;25.57;18.10;;;;;;;9.23;60.68;103128.53;5056035;28;20072;-36
2022/03/23 08:31:15;;;;;;;22.95;19.50;;;;;;;9.31;60.19;103109.59;5056563;28;20025;-35
2022/03/23 08:33:41;;;;;;;24.73;18.63;;;;;;;9.42;59.49;103112.00;5055495;28;20091;-35
2022/03/23 08:36:07;;;;;;;25.02;18.92;;;;;;;9.57;59.78;103127.53;5056737;28;20032;-35
2022/03/23 08:38:34;;;;;;;22.90;18.77;;;;;;;9.70;57.89;103117.03;5056829;28;20322;-35
2022/03/23 08:40:59;;;;;;;23.08;18.65;;;;;;;9.81;56.83;103116.72;5056049;28;20032;-34
2022/03/23 08:43:25;;;;;;;26.88;20.35;;;;;;;10.01;57.34;103125.31;5056757;28;20464;-35
2022/03/23 08:45:51;;;;;;;23.93;17.83;;;;;;;10.05;56.72;103116.69;5056510;28;20456;-35
2022/03/23 08:48:19;;;;;;;25.58;20.48;;;;;;;10.17;55.51;103117.16;5055771;28;20492;-35
2022/03/23 08:50:46;;;;;;;23.00;20.55;;;;;;;10.20;57.22;103116.81;5056428;28;20040;-35
2022/03/23 08:53:12;;;;;;;26.05;21.52;;;;;;;10.44;54.80;103115.06;5055560;28;20032;-35
2022/03/23 08:55:37;;;;;;;27.00;20.30;;;;;;;10.56;55.01;103127.19;5056235;28;20363;-36
2022/03/23 08:58:02;;;;;;;25.27;18.57;;;;;;;10.67;55.03;103123.25;5056040;28;20079;-34
2022/03/23 09:00:28;;;;;;;22.13;18.80;;;;;;;10.73;55.00;103114.44;5056430;28;20064;-35
2022/03/23 09:02:53;;;;;;;25.85;19.00;;;;;;;10.96;52.73;103117.19;5055225;28;20275;-34
2022/03/23 09:05:19;;;;;;;27.20;18.23;;;;;;;11.08;52.71;103121.19;5056081;28;20029;-34
2022/03/23 09:07:45;;;;;;;25.27;18.58;;;;;;;11.21;53.65;103124.13;5055596;28;20021;-34
2022/03/23 09:10:13;;;;;;;;;;;;;;;11.35;55.41;103122.50;5056020;28;20458;-35
2022/03/23 09:12:39;;;;;;;25.67;19.08;;;;;;;11.45;52.84;103123.09;5055332;28;19908;-35
2022/03/23 09:15:06;;;;;;;23.65;19.15;;;;;;;11.56;52.53;103117.25;5054885;28;20474;-35
2022/03/23 09:17:32;;;;;;;27.15;19.02;;;;;;;11.66;51.94;103121.56;5055217;28;20111;-35
2022/03/23 09:20:00;;;;;;;23.83;18.85;;;;;;;11.79;51.51;103122.66;5055791;28;20060;-35
2022/03/23 09:22:27;;;;;;;26.35;19.52;;;;;;;11.94;51.31;103122.69;5055328;28;20083;-35
2022/03/23 09:24:52;;;;;;;23.63;20.08;;;;;;;12.08;53.57;103119.16;5055102;28;20092;-35
2022/03/23 09:27:17;;;;;;;25.83;19.77;;;;;;;12.25;50.15;103122.56;5055405;28;20043;-36
2022/03/23 09:29:44;;;;;;;23.83;19.77;;;;;;;12.35;51.33;103114.16;5054086;28;20340;-36
2022/03/23 09:32:12;;;;;;;;;;;;;;;12.48;50.59;103119.72;5055462;28;20112;-35
2022/03/23 09:34:37;;;;;;;24.48;18.20;;;;;;;12.53;50.16;103120.00;5054385;28;19909;-35
2022/03/23 09:39:48;;;;;;;22.98;18.48;;;;;;;12.71;48.30;103116.91;5055535;28;20106;-36
2022/03/23 09:42:15;;;;;;;21.98;18.60;;;;;;;12.78;51.00;103101.53;5054194;28;20029;-35
2022/03/23 09:44:40;;;;;;;22.27;17.63;;;;;;;12.90;51.29;103115.47;5054518;28;20040;-35
2022/03/23 09:47:06;;;;;;;24.60;18.55;;;;;;;13.02;49.37;103089.47;5054809;28;20127;-35
2022/03/23 09:49:31;;;;;;;25.73;18.55;;;;;;;13.24;47.32;103122.13;5054144;28;20470;-35
2022/03/23 09:51:58;;;;;;;25.38;18.30;;;;;;;13.29;46.96;103114.25;5054720;28;20462;-35
2022/03/23 09:54:23;;;;;;;23.85;18.00;;;;;;;13.36;49.13;103104.25;5054968;28;20080;-35
2022/03/23 09:56:49;;;;;;;21.77;18.70;;;;;;;13.61;46.26;103112.84;5054369;28;20592;-36
2022/03/23 09:59:14;;;;;;;25.50;18.58;;;;;;;13.70;45.25;103116.28;5054448;28;20033;-36
2022/03/23 10:01:51;;;;;;;25.40;18.93;;;;;;;13.75;45.32;103113.81;5054842;28;20035;-36
2022/03/23 10:04:19;;;;;;;26.00;17.15;;;;;;;13.86;45.52;103105.97;5054882;28;20075;-36
2022/03/23 10:07:10;;;;;;;22.77;18.00;;;;;;;13.89;45.10;103110.16;5054685;28;20025;-36
2022/03/23 10:10:17;;;;;;;24.13;18.23;;;;;;;14.01;43.96;103119.47;5054772;28;20094;-36
2022/03/23 10:13:20;;;;;;;25.10;17.60;;;;;;;14.18;43.68;103117.25;5012684;28;20491;-36
2022/03/23 10:16:23;;;;;;;24.25;16.67;;;;;;;14.27;43.55;103116.06;5012129;28;20803;-36
2022/03/23 10:18:59;;;;;;;23.38;16.02;;;;;;;14.47;40.77;103120.78;5011928;28;20038;-35
2022/03/23 10:21:38;;;;;;;21.20;16.10;;;;;;;14.58;40.98;103120.22;5012136;28;20033;-35
2022/03/23 10:24:04;;;;;;;21.17;16.13;;;;;;;14.65;39.71;103112.94;5012004;28;20038;-35
2022/03/23 10:26:32;;;;;;;19.15;16.55;;;;;;;14.68;39.32;103107.91;5010951;28;20038;-35
2022/03/23 10:28:58;;;;;;;20.70;17.38;;;;;;;14.75;40.97;103090.78;5012527;28;20120;-36
2022/03/23 10:31:26;;;;;;;21.55;16.33;;;;;;;14.93;40.27;103101.91;5012406;28;20041;-36
2022/03/23 10:34:08;;;;;;;26.55;17.48;;;;;;;15.07;41.94;103106.34;5011704;28;20036;-35
2022/03/23 10:36:40;;;;;;;18.85;16.42;;;;;;;15.16;42.49;103107.84;5012279;28;20121;-36
2022/03/23 10:39:12;;;;;;;20.83;17.27;;;;;;;15.19;41.22;103099.25;5012063;28;20061;-36
2022/03/23 10:41:38;;;;;;;23.67;17.13;;;;;;;15.36;40.52;103102.41;5011956;28;20030;-35
2022/03/23 10:44:14;;;;;;;;;;;;;;;15.49;41.19;103103.50;5012339;28;20049;-35
2022/03/23 10:46:43;;;;;;;20.70;17.30;;;;;;;15.66;40.89;103099.31;4995310;28;19909;-36
2022/03/23 10:49:10;;;;;;;17.75;14.98;;;;;;;15.75;39.01;103086.31;5026912;28;20033;-36
2022/03/23 10:51:37;;;;;;;19.48;16.35;;;;;;;15.94;39.20;103101.81;5053322;28;20062;-36
2022/03/23 10:54:23;;;;;;;17.88;15.23;;;;;;;16.03;39.73;103083.31;5053661;28;20491;-36
2022/03/23 10:56:49;;;;;;;20.23;16.83;;;;;;;16.06;38.74;103074.72;5052523;28;20052;-36
2022/03/23 10:59:23;;;;;;;;;;;;;;;16.27;39.11;103093.56;5052776;28;20021;-37
2022/03/23 11:01:57;;;;;;;20.85;16.88;;;;;;;16.29;40.51;103085.16;5052015;28;19917;-36
2022/03/23 11:04:24;;;;;;;17.52;15.40;;;;;;;16.26;38.85;103074.69;5051924;28;20062;-36
2022/03/23 11:06:50;;;;;;;18.95;15.57;;;;;;;16.39;37.24;103089.09;5053716;28;20024;-36
2022/03/23 11:18:08;;;;;;;17.77;14.43;;;;;;;16.76;34.64;103083.09;5053118;28;20052;-35
2022/03/23 11:20:53;;;;;;;15.85;14.18;;;;;;;16.74;34.75;103075.13;5052724;28;20164;-36
2022/03/23 11:23:30;;;;;;;18.65;14.75;;;;;;;16.79;32.28;103085.38;5052981;28;20057;-37
2022/03/23 11:26:00;;;;;;;22.70;14.95;;;;;;;16.95;32.21;103073.97;5053839;28;20036;-36
2022/03/23 11:28:28;;;;;;;16.77;15.07;;;;;;;16.90;34.51;103060.13;5052606;28;20029;-35
2022/03/23 11:30:55;;;;;;;17.80;14.32;;;;;;;17.05;33.75;103068.84;5053467;28;20416;-37
2022/03/23 11:33:23;;;;;;;16.23;14.23;;;;;;;17.25;33.14;103068.69;5052889;28;20039;-36
2022/03/23 11:35:51;;;;;;;16.63;14.85;;;;;;;17.34;33.38;103066.53;5053192;28;20029;-36
2022/03/23 11:38:19;;;;;;;17.45;13.95;;;;;;;17.51;32.59;103068.47;5052349;28;20032;-36
2022/03/23 11:40:47;;;;;;;15.43;13.82;;;;;;;17.52;31.37;103066.59;5052961;28;20032;-36
2022/03/23 11:43:15;;;;;;;15.52;13.80;;;;;;;17.56;32.91;103051.38;5052536;28;20028;-36